Latest Weather Observations for Sydney - Observatory Hill

IDN60801

Issued at 7:05 am EDT Monday 26 January 2015 (issued every 30 minutes, with the page automatically refreshed every 10 minutes)

About weather observations | Map of weather stations | Latest weather observations for NSW | Other Formats
Station Details ID: 066062 Name: SYDNEY (OBSERVATORY HILL) Lat: -33.86 Lon: 151.21 Height: 39.0 m
Data from the previous 72 hours. | See also: Recent months at Sydney - Observatory Hill

* Apparent temperature (App Temp) for Sydney - Observatory Hill is calculated using temperature observations collected at Sydney - Observatory Hill and wind observations collected at Fort Denison, as wind observations are not currently provided for Sydney - Observatory Hill.

Date/Time
EDT
Temp
°C
App
Temp
°C
Dew
Point
Rel
Hum
%
Delta-T
°C
Wind Press
QNH
hPa
Press
MSL
hPa
Rain
since 9 am
mm
Dir
 
Spd
km/h
Gust
km/h
Spd
kts
Gust
kts
26/07:00am 21.3 20.9 18.1 82 2.0 SSE 17 - 9 - 1011.8 1011.7 0.2
26/06:30am 20.8 21.1 18.0 84 1.7 SSW 13 - 7 - 1011.4 1011.3 0.2
26/06:00am 20.5 20.0 17.9 85 1.6 SSW 17 - 9 - 1010.9 1010.7 0.2
26/05:30am 20.4 19.9 17.8 85 1.6 S 17 - 9 - 1010.7 1010.5 0.2
26/05:00am 20.3 19.8 17.7 85 1.6 SSW 17 - 9 - 1010.7 1010.5 0.2
26/04:30am 20.5 20.1 18.1 86 1.5 SSW 17 - 9 - 1010.5 1010.3 0.2
26/04:00am 20.8 19.7 17.8 83 1.9 SSW 20 - 11 - 1010.5 1010.3 0.2
26/03:30am 21.8 21.3 17.8 78 2.5 SSW 17 - 9 - 1010.4 1010.2 0.2
26/03:00am 22.4 21.9 17.8 75 2.9 SSW 17 - 9 - 1010.0 1009.8 0.2
26/02:30am 22.4 22.0 18.0 76 2.7 S 17 - 9 - 1009.9 1009.7 0.2
26/02:00am 22.4 22.2 18.6 79 2.4 S 17 - 9 - 1010.1 1009.9 0.2
26/01:30am 22.3 23.2 18.3 78 2.5 S 11 - 6 - 1010.1 1009.9 0.2
26/01:00am 22.2 22.7 18.4 79 2.4 S 13 - 7 - 1010.1 1009.9 0.2
26/12:30am 22.3 22.6 18.7 80 2.3 SSE 15 - 8 - 1009.9 1009.7 0.2
26/12:00am 22.4 21.0 18.8 80 2.3 SSE 24 - 13 - 1009.7 1009.5 0.2
 
Date/Time
EDT
Temp
°C
App
Temp
°C
Dew
Point
Rel
Hum
%
Delta-T
°C
Wind Press
QNH
hPa
Press
MSL
hPa
Rain
since 9 am
mm
Dir
 
Spd
km/h
Gust
km/h
Spd
kts
Gust
kts
25/11:30pm 22.5 21.2 19.1 81 2.2 SSE 24 - 13 - 1009.6 1009.4 0.2
25/11:00pm 22.7 21.5 19.3 81 2.2 SSE 24 - 13 - 1009.3 1009.1 0.2
25/10:30pm 22.8 21.6 19.2 80 2.3 SSE 24 - 13 - 1008.8 1008.6 0.2
25/10:00pm 23.1 20.5 19.5 80 2.3 S 32 - 17 - 1008.3 1008.1 0.2
25/09:30pm 23.2 20.6 19.4 79 2.4 S 32 - 17 - 1007.7 1007.5 0.2
25/09:00pm 23.3 20.2 19.7 80 2.3 S 35 - 19 - 1007.1 1006.9 0.2
25/08:30pm 23.5 21.1 20.0 81 2.3 S 32 - 17 - 1006.3 1006.1 0.2
25/08:00pm 23.8 20.9 20.1 80 2.4 S 35 - 19 - 1005.6 1005.4 0.2
25/07:30pm 24.5 22.1 20.0 76 2.9 S 32 - 17 - 1005.3 1005.1 0.2
25/07:00pm 29.1 28.7 15.2 42 8.5 ESE 11 - 6 - 1003.8 1003.6 0.2
25/06:30pm 29.5 29.0 16.0 44 8.4 ESE 13 - 7 - 1003.1 1002.9 0.2
25/05:30pm 29.8 29.0 16.2 43 8.5 E 15 - 8 - 1002.4 1002.2 0.2
25/05:00pm 29.0 29.0 16.2 46 8.0 E 11 - 6 - 1002.3 1002.1 0.2
25/04:30pm 29.1 28.7 16.3 46 8.0 E 13 - 7 - 1002.0 1001.8 0.2
25/04:00pm 29.7 28.3 16.5 45 8.3 ENE 19 - 10 - 1001.9 1001.7 0.2
25/03:30pm 29.1 27.7 17.0 48 7.6 ENE 20 - 11 - 1001.8 1001.6 0.2
25/03:00pm 31.2 30.2 17.5 44 8.8 E 19 - 10 - 1001.8 1001.6 0.2
25/02:30pm 30.5 28.3 16.9 44 8.6 E 24 - 13 - 1001.6 1001.4 0.2
25/02:00pm 31.8 30.9 17.7 43 9.1 E 19 - 10 - 1001.7 1001.5 0.2
25/01:30pm 31.1 29.6 17.8 45 8.5 ENE 22 - 12 - 1001.9 1001.7 0.2
25/01:00pm 33.4 32.0 17.1 37 10.5 ENE 20 - 11 - 1002.1 1001.9 0.2
25/12:30pm 33.6 34.4 17.3 37 10.4 WNW 9 - 5 - 1002.3 1002.1 0.2
25/12:00pm 32.4 32.7 17.1 40 9.8 NW 11 - 6 - 1002.8 1002.6 0.2
25/11:30am 31.4 32.8 17.7 44 8.8 WNW 7 - 4 - 1003.0 1002.8 0.2
25/11:00am 30.3 31.3 17.7 46 8.1 NW 9 - 5 - 1003.2 1003.0 0.2
25/10:30am 28.7 31.0 17.6 51 7.0 S 2 - 1 - 1003.2 1003.0 0.2
25/10:00am 28.0 32.5 21.5 67 4.4 CALM 0 - 0 - 1002.9 1002.7 0.2
25/09:30am 26.5 30.1 20.6 70 3.9 WNW 2 - 1 - 1003.0 1002.8 0.2
25/09:00am 25.0 27.9 20.7 77 2.8 W 6 - 3 - 1003.3 1003.1 0.0
25/08:30am 23.6 26.4 20.9 85 1.8 W 7 - 4 - 1003.4 1003.2 0.0
25/08:00am 22.7 25.1 20.8 89 1.2 W 9 - 5 - 1003.2 1003.0 0.0
25/07:30am 22.5 25.3 20.8 90 1.1 W 7 - 4 - 1003.0 1002.8 0.0
25/07:00am 22.2 25.9 20.7 91 1.0 N 2 - 1 - 1002.9 1002.7 0.0
25/06:30am 21.7 24.8 20.2 91 1.0 N 4 - 2 - 1002.3 1002.1 0.0
25/06:00am 21.6 25.0 20.1 91 1.0 NNE 2 - 1 - 1002.2 1002.0 0.0
25/05:30am 21.8 24.9 20.3 91 1.0 NNW 4 - 2 - 1002.1 1001.9 0.0
25/05:00am 22.0 25.2 20.5 91 1.0 NW 4 - 2 - 1002.0 1001.8 0.0
25/04:30am 22.0 25.1 20.3 90 1.1 NNW 4 - 2 - 1002.0 1001.8 0.0
25/04:00am 22.0 24.2 20.3 90 1.1 WNW 9 - 5 - 1002.2 1002.0 0.0
25/03:30am 22.1 23.2 20.4 90 1.1 W 15 - 8 - 1002.4 1002.2 0.0
25/03:00am 22.4 23.6 20.7 90 1.1 W 15 - 8 - 1002.8 1002.6 0.0
25/02:30am 22.8 24.1 20.9 89 1.2 W 15 - 8 - 1003.4 1003.2 0.0
25/02:00am 23.4 26.3 21.7 90 1.1 WNW 9 - 5 - 1003.9 1003.7 0.0
25/01:30am 23.6 26.4 21.5 88 1.4 NW 9 - 5 - 1004.5 1004.3 0.0
25/01:00am 23.8 25.3 21.3 86 1.7 NNW 15 - 8 - 1004.7 1004.5 0.0
25/12:30am 24.1 25.9 21.8 87 1.5 NNE 15 - 8 - 1004.8 1004.6 0.0
25/12:00am 23.9 26.3 22.2 90 1.1 NE 13 - 7 - 1005.0 1004.8 0.0
 
Date/Time
EDT
Temp
°C
App
Temp
°C
Dew
Point
Rel
Hum
%
Delta-T
°C
Wind Press
QNH
hPa
Press
MSL
hPa
Rain
since 9 am
mm
Dir
 
Spd
km/h
Gust
km/h
Spd
kts
Gust
kts
24/11:30pm 23.7 26.6 21.8 89 1.3 N 9 - 5 - 1005.7 1005.5 0.0
24/11:00pm 23.4 26.3 20.7 85 1.8 N 6 - 3 - 1006.3 1006.1 0.0
24/10:30pm 24.9 25.9 21.0 79 2.6 W 17 - 9 - 1006.7 1006.5 0.0
24/10:00pm 25.3 27.4 21.0 77 2.8 NW 11 - 6 - 1006.9 1006.7 0.0
24/09:30pm 25.6 28.1 21.1 76 3.0 NNE 9 - 5 - 1006.2 1006.0 0.0
24/09:00pm 25.4 27.1 20.9 76 3.0 NNE 13 - 7 - 1006.0 1005.8 0.0
24/08:30pm 25.6 27.8 21.1 76 3.0 N 11 - 6 - 1005.6 1005.4 0.0
24/08:00pm 25.5 27.0 21.2 77 2.9 NE 15 - 8 - 1005.0 1004.8 0.0
24/07:30pm 25.6 27.5 21.3 77 2.8 ENE 13 - 7 - 1004.7 1004.5 0.0
24/07:00pm 25.8 26.7 21.5 77 2.9 NE 19 - 10 - 1004.5 1004.3 0.0
24/06:30pm 26.0 26.1 21.2 75 3.2 NE 22 - 12 - 1003.8 1003.6 0.0
24/06:00pm 26.0 26.5 21.2 75 3.2 NE 20 - 11 - 1004.0 1003.8 0.0
24/05:30pm 26.3 26.6 21.5 75 3.2 NE 22 - 12 - 1003.8 1003.6 0.0
24/05:00pm 26.4 25.8 21.2 73 3.5 ENE 26 - 14 - 1003.8 1003.6 0.0
24/04:30pm 27.2 25.9 19.0 61 5.3 NE 24 - 13 - 1004.5 1004.3 0.0
24/04:00pm 27.4 26.2 19.2 61 5.3 NE 24 - 13 - 1004.9 1004.7 0.0
24/03:30pm 27.5 26.0 17.7 55 6.2 NE 22 - 12 - 1004.9 1004.7 0.0
24/03:00pm 28.3 26.6 18.1 54 6.5 NE 24 - 13 - 1005.1 1004.9 0.0
24/02:30pm 28.1 26.2 18.5 56 6.2 NE 26 - 14 - 1005.7 1005.5 0.0
24/02:00pm 28.1 26.3 18.8 57 6.0 NE 26 - 14 - 1006.1 1005.9 0.0
24/01:30pm 27.8 26.4 18.8 58 5.8 NE 24 - 13 - 1006.4 1006.2 0.0
24/01:00pm 27.9 26.2 18.9 58 5.8 NE 26 - 14 - 1006.8 1006.6 0.0
24/12:30pm 28.5 26.9 18.3 54 6.5 NE 24 - 13 - 1007.1 1006.9 0.0
24/12:00pm 28.9 28.1 18.4 53 6.8 NE 20 - 11 - 1007.4 1007.2 0.0
24/11:30am 28.1 26.4 18.2 55 6.3 ENE 24 - 13 - 1007.7 1007.5 0.0
24/11:00am 28.1 27.1 17.9 54 6.5 ENE 20 - 11 - 1007.8 1007.6 0.0
24/10:30am 27.8 27.2 18.5 57 6.0 ENE 19 - 10 - 1007.9 1007.7 0.0
24/10:00am 27.9 28.0 19.9 61 5.2 ENE 19 - 10 - 1008.1 1007.9 0.0
24/09:30am 27.1 28.2 20.4 66 4.4 E 15 - 8 - 1008.3 1008.1 0.0
24/09:00am 26.7 27.8 20.5 69 4.1 E 15 - 8 - 1008.3 1008.1 0.0
24/08:30am 25.6 29.1 20.4 73 3.4 SE 2 - 1 - 1008.1 1007.9 0.0
24/08:00am 24.5 28.3 21.0 81 2.3 NE 2 - 1 - 1008.1 1007.9 0.0
24/07:30am 23.4 26.7 20.7 85 1.8 N 4 - 2 - 1007.9 1007.7 0.0
24/07:00am 23.0 25.8 20.5 86 1.6 ENE 6 - 3 - 1007.4 1007.2 0.0
24/06:30am 22.8 25.3 20.3 86 1.6 E 7 - 4 - 1007.2 1007.0 0.0
24/06:00am 22.8 25.6 20.5 87 1.5 ENE 6 - 3 - 1007.1 1006.9 0.0
24/05:30am 22.9 25.5 20.4 86 1.6 ENE 7 - 4 - 1007.1 1006.9 0.0
24/05:00am 22.9 25.2 20.6 87 1.5 NE 9 - 5 - 1006.8 1006.6 0.0
24/04:30am 23.0 25.8 20.5 86 1.6 N 6 - 3 - 1006.7 1006.5 0.0
24/04:00am 23.0 25.0 20.7 87 1.5 NE 11 - 6 - 1006.4 1006.2 0.0
24/03:30am 23.0 24.2 20.7 87 1.5 NNE 15 - 8 - 1006.4 1006.2 0.0
24/03:00am 23.1 23.9 20.6 86 1.6 NNE 17 - 9 - 1006.6 1006.4 0.0
24/02:30am 23.2 23.6 20.9 87 1.5 NNE 20 - 11 - 1006.7 1006.5 0.0
24/02:00am 23.4 23.9 20.9 86 1.6 NE 19 - 10 - 1006.9 1006.7 0.0
24/01:30am 23.6 24.1 20.9 85 1.8 NNE 19 - 10 - 1007.1 1006.9 0.0
24/01:00am 23.7 24.1 21.0 85 1.8 NNE 20 - 11 - 1007.3 1007.1 0.0
24/12:30am 23.8 24.3 20.9 84 1.9 NNE 19 - 10 - 1007.1 1006.9 0.0
24/12:00am 24.1 24.4 20.8 82 2.2 NNE 20 - 11 - 1007.4 1007.2 0.0
 
Date/Time
EDT
Temp
°C
App
Temp
°C
Dew
Point
Rel
Hum
%
Delta-T
°C
Wind Press
QNH
hPa
Press
MSL
hPa
Rain
since 9 am
mm
Dir
 
Spd
km/h
Gust
km/h
Spd
kts
Gust
kts
23/11:30pm 24.4 24.0 20.9 81 2.3 NNE 24 - 13 - 1007.7 1007.5 0.0
23/11:00pm 24.5 23.7 20.8 80 2.4 NE 26 - 14 - 1007.3 1007.1 0.0
23/10:30pm 24.8 23.6 20.9 79 2.6 NE 28 - 15 - 1007.2 1007.0 0.0
23/10:00pm 24.8 23.7 21.1 80 2.4 NNE 28 - 15 - 1007.4 1007.2 0.0
23/09:30pm 24.9 24.3 21.2 80 2.4 NNE 26 - 14 - 1007.1 1006.9 0.0
23/09:00pm 24.8 23.7 21.1 80 2.4 NNE 28 - 15 - 1006.7 1006.5 0.0
23/08:30pm 25.1 24.5 21.2 79 2.6 NNE 26 - 14 - 1006.8 1006.6 0.0
23/08:00pm 25.0 24.3 21.1 79 2.6 NE 26 - 14 - 1006.9 1006.7 0.0
23/07:30pm 25.4 25.1 21.1 77 2.8 NNE 24 - 13 - 1006.9 1006.7 0.0
23/07:00pm 25.8 25.1 21.0 75 3.2 NNE 26 - 14 - 1006.4 1006.2 0.0
23/06:30pm 26.3 26.1 20.6 71 3.7 NNE 22 - 12 - 1006.5 1006.3 0.0
23/06:00pm 26.9 25.6 20.7 69 4.1 NE 28 - 15 - 1006.0 1005.8 0.0
23/05:30pm 27.3 25.5 19.6 62 5.0 NE 28 - 15 - 1006.1 1005.9 0.0
23/05:00pm 27.7 25.9 19.5 61 5.3 NE 28 - 15 - 1006.4 1006.2 0.0
23/04:30pm 27.8 26.8 19.6 61 5.3 NE 24 - 13 - 1006.4 1006.2 0.0
23/04:00pm 28.2 26.6 20.0 61 5.4 NE 28 - 15 - 1006.5 1006.3 0.0
23/03:30pm 28.2 27.5 20.2 62 5.3 NE 24 - 13 - 1007.0 1006.8 0.0
23/03:00pm 28.7 26.9 20.4 60 5.5 NE 30 - 16 - 1007.2 1007.0 0.0
23/02:30pm 28.0 26.2 20.3 63 5.1 NE 30 - 16 - 1007.3 1007.1 0.0
23/02:00pm 28.6 27.3 20.6 62 5.3 NE 28 - 15 - 1007.8 1007.6 0.0
23/01:30pm 28.7 28.1 20.4 60 5.5 NE 24 - 13 - 1008.2 1008.0 0.0
23/01:00pm 27.9 26.8 20.2 63 5.1 NE 26 - 14 - 1008.4 1008.2 0.0
23/12:30pm 27.8 27.2 20.4 64 4.9 NE 24 - 13 - 1008.8 1008.6 0.0
23/12:00pm 27.9 27.8 20.7 65 4.8 NE 22 - 12 - 1009.0 1008.8 0.0
23/11:30am 27.4 27.7 20.5 66 4.5 NE 19 - 10 - 1009.3 1009.1 0.0
23/11:00am 27.2 27.3 20.3 66 4.5 ENE 20 - 11 - 1009.5 1009.3 0.0
23/10:30am 26.6 26.3 19.5 65 4.6 ENE 20 - 11 - 1009.7 1009.5 0.0
23/10:00am 27.2 28.0 21.7 72 3.7 ENE 20 - 11 - 1009.9 1009.7 0.0
23/09:30am 26.2 27.7 19.8 68 4.2 NE 11 - 6 - 1010.3 1010.1 0.0
23/09:00am 25.8 27.8 20.8 74 3.3 NE 11 - 6 - 1010.3 1010.1 0.0
23/08:30am 24.9 27.4 20.2 75 3.1 N 7 - 4 - 1010.6 1010.4 0.0
23/08:00am 24.7 27.1 20.8 79 2.6 N 9 - 5 - 1010.5 1010.3 0.0
23/07:30am 24.0 27.0 20.9 83 2.0 NNE 6 - 3 - 1010.3 1010.1 0.0

Other Formats:

Comma delimited format used in spreadsheet applications
http://www.bom.gov.au/fwo/IDN60801/IDN60801.94768.axf

JavaScript Object Notation format (JSON) in row-major order
http://www.bom.gov.au/fwo/IDN60801/IDN60801.94768.json